createdAt,value
2017-03-04T00:00:23.489Z,8.86
2017-03-04T00:01:23.496Z,8.84
2017-03-04T00:02:23.525Z,8.87
2017-03-04T00:03:24.358Z,8.87
2017-03-04T00:04:24.374Z,8.94
2017-03-04T00:05:24.458Z,8.91
2017-03-04T00:06:24.081Z,8.87
2017-03-04T00:07:24.098Z,8.87
2017-03-04T00:08:24.130Z,8.83
2017-03-04T00:09:24.562Z,8.87
2017-03-04T00:10:23.817Z,8.86
2017-03-04T00:11:23.844Z,8.9
2017-03-04T00:12:24.675Z,8.84
2017-03-04T00:13:23.935Z,8.73
2017-03-04T00:14:23.945Z,8.88
2017-03-04T00:15:24.374Z,8.81
2017-03-04T00:16:24.021Z,8.72
2017-03-04T00:17:24.847Z,8.87
2017-03-04T00:18:24.875Z,8.83
2017-03-04T00:19:24.521Z,8.83
2017-03-04T00:20:24.549Z,8.81
2017-03-04T00:21:24.244Z,8.83
2017-03-04T00:22:25.016Z,8.81
2017-03-04T00:23:24.676Z,8.83
2017-03-04T00:24:24.709Z,8.81
2017-03-04T00:25:24.736Z,8.78
2017-03-04T00:26:24.765Z,8.86
2017-03-04T00:27:25.211Z,8.83
2017-03-04T00:28:24.847Z,8.81
2017-03-04T00:29:24.878Z,8.84
2017-03-04T00:30:24.522Z,8.9
2017-03-04T00:31:24.945Z,8.88
2017-03-04T00:32:24.592Z,8.84
2017-03-04T00:33:24.624Z,8.78
2017-03-04T00:34:24.656Z,8.78
2017-03-04T00:35:24.690Z,8.78
2017-03-04T00:36:25.110Z,8.81
2017-03-04T00:37:25.162Z,8.73
2017-03-04T00:38:24.794Z,8.73
2017-03-04T00:39:24.834Z,8.75
2017-03-04T00:40:25.254Z,8.68
2017-03-04T00:41:25.294Z,8.71
2017-03-04T00:42:24.935Z,8.71
2017-03-04T00:43:24.985Z,8.76
2017-03-04T00:44:24.995Z,8.72
2017-03-04T00:45:25.428Z,8.73
2017-03-04T00:46:25.488Z,8.72
2017-03-04T00:47:25.113Z,8.66
2017-03-04T00:48:25.922Z,8.63
2017-03-04T00:49:25.972Z,8.68
2017-03-04T00:50:25.239Z,8.73
2017-03-04T00:51:25.640Z,8.57
2017-03-04T00:52:25.303Z,8.68
2017-03-04T00:53:25.318Z,8.6
2017-03-04T00:54:25.752Z,8.55
2017-03-04T00:55:25.781Z,8.57
2017-03-04T00:56:25.413Z,8.66
2017-03-04T00:57:25.480Z,8.68
2017-03-04T00:58:25.907Z,8.57
2017-03-04T00:59:25.958Z,8.63
2017-03-04T01:00:25.551Z,8.6
2017-03-04T01:01:25.991Z,8.55
2017-03-04T01:02:26.023Z,8.55
2017-03-04T01:03:25.684Z,8.54
2017-03-04T01:04:26.093Z,8.53
2017-03-04T01:05:25.763Z,8.55
2017-03-04T01:06:26.555Z,8.57
2017-03-04T01:07:26.204Z,8.5
2017-03-04T01:08:26.244Z,8.54
2017-03-04T01:09:26.272Z,8.47
2017-03-04T01:10:25.940Z,8.55
2017-03-04T01:11:26.348Z,8.55
2017-03-04T01:12:25.992Z,8.53
2017-03-04T01:13:26.015Z,8.6
2017-03-04T01:14:26.837Z,8.54
2017-03-04T01:15:26.472Z,8.55
2017-03-04T01:16:26.896Z,8.48
2017-03-04T01:17:26.164Z,8.55
2017-03-04T01:18:26.974Z,8.58
2017-03-04T01:19:27.013Z,8.44
2017-03-04T01:20:26.269Z,8.51
2017-03-04T01:21:26.685Z,8.44
2017-03-04T01:22:26.721Z,8.45
2017-03-04T01:23:26.759Z,8.42
2017-03-04T01:24:26.780Z,8.5
2017-03-04T01:25:27.217Z,8.42
2017-03-04T01:26:26.866Z,8.39
2017-03-04T01:27:26.506Z,8.4
2017-03-04T01:28:26.537Z,8.37
2017-03-04T01:29:26.974Z,8.4
2017-03-04T01:30:26.990Z,8.39
2017-03-04T01:31:27.047Z,8.32
2017-03-04T01:32:27.061Z,8.35
2017-03-04T01:33:27.118Z,8.35
2017-03-04T01:34:27.147Z,8.33
2017-03-04T01:35:26.778Z,8.42
2017-03-04T01:36:27.598Z,8.33
2017-03-04T01:37:27.245Z,8.28
2017-03-04T01:38:26.875Z,8.29
2017-03-04T01:39:26.936Z,8.3
2017-03-04T01:40:27.362Z,8.35
2017-03-04T01:41:27.373Z,8.28
2017-03-04T01:42:27.028Z,8.28
2017-03-04T01:43:27.053Z,8.28
2017-03-04T01:44:27.901Z,8.22
2017-03-04T01:45:27.125Z,8.35
2017-03-04T01:46:27.174Z,8.25
2017-03-04T01:47:27.200Z,8.32
2017-03-04T01:48:27.618Z,8.25
2017-03-04T01:49:27.280Z,8.3
2017-03-04T01:50:27.292Z,8.32
2017-03-04T01:51:27.740Z,8.3
2017-03-04T01:52:28.162Z,8.29
2017-03-04T01:53:27.404Z,8.26
2017-03-04T01:54:27.849Z,8.29
2017-03-04T01:55:28.255Z,8.25
2017-03-04T01:56:27.915Z,8.21
2017-03-04T01:57:27.940Z,8.18
2017-03-04T01:58:28.357Z,8.17
2017-03-04T01:59:28.003Z,8.15
2017-03-04T02:00:27.660Z,8.18
2017-03-04T02:01:27.680Z,8.15
2017-03-04T02:02:28.519Z,8.15
2017-03-04T02:03:28.142Z,8.18
2017-03-04T02:04:28.182Z,8.17
2017-03-04T02:05:27.828Z,8.17
2017-03-04T02:06:27.864Z,8.14
2017-03-04T02:07:28.282Z,8.22
2017-03-04T02:08:28.315Z,8.15
2017-03-04T02:09:28.353Z,8.17
2017-03-04T02:10:28.391Z,8.12
2017-03-04T02:11:28.433Z,8.2
2017-03-04T02:12:28.460Z,8.12
2017-03-04T02:13:28.096Z,8.2
2017-03-04T02:14:28.527Z,8.18
2017-03-04T02:15:28.557Z,8.15
2017-03-04T02:16:29.001Z,8.15
2017-03-04T02:17:29.023Z,8.29
2017-03-04T02:18:28.692Z,8.18
2017-03-04T02:19:28.703Z,8.18
2017-03-04T02:20:28.344Z,8.14
2017-03-04T02:21:29.148Z,8.14
2017-03-04T02:22:28.799Z,8.15
2017-03-04T02:23:28.440Z,8.15
2017-03-04T02:24:29.270Z,8.28
2017-03-04T02:25:29.297Z,8.28
2017-03-04T02:26:28.553Z,8.17
2017-03-04T02:27:28.964Z,8.14
2017-03-04T02:28:29.023Z,8.14
2017-03-04T02:29:29.051Z,8.17
2017-03-04T02:30:28.682Z,8.11
2017-03-04T02:31:29.538Z,8.18
2017-03-04T02:32:28.753Z,8.21
2017-03-04T02:33:29.186Z,8.17
2017-03-04T02:34:28.830Z,8.15
2017-03-04T02:35:29.256Z,8.08
2017-03-04T02:36:29.297Z,8.15
2017-03-04T02:37:28.938Z,8.07
2017-03-04T02:38:28.972Z,8.11
2017-03-04T02:39:29.415Z,8.14
2017-03-04T02:40:29.442Z,8.03
2017-03-04T02:41:29.060Z,8.07
2017-03-04T02:42:29.122Z,8.08
2017-03-04T02:43:29.148Z,8
2017-03-04T02:44:29.550Z,8.12
2017-03-04T02:45:29.593Z,8.02
2017-03-04T02:46:29.635Z,8.1
2017-03-04T02:47:29.287Z,8.08
2017-03-04T02:48:29.299Z,8
2017-03-04T02:49:29.348Z,8.11
2017-03-04T02:50:29.375Z,8.07
2017-03-04T02:51:29.813Z,8.04
2017-03-04T02:52:29.439Z,8.07
2017-03-04T02:53:29.499Z,8.11
2017-03-04T02:54:29.915Z,8.07
2017-03-04T02:55:29.754Z,8.08
2017-03-04T02:56:29.971Z,8.08
2017-03-04T02:57:29.612Z,8.08
2017-03-04T02:58:29.649Z,8.02
2017-03-04T02:59:29.693Z,8.11
2017-03-04T03:00:29.737Z,7.97
2017-03-04T03:01:29.760Z,8.03
2017-03-04T03:02:30.191Z,7.99
2017-03-04T03:03:30.653Z,7.99
2017-03-04T03:04:29.856Z,8.11
2017-03-04T03:05:29.899Z,8.07
2017-03-04T03:06:29.920Z,8.08
2017-03-04T03:07:30.758Z,8.07
2017-03-04T03:08:30.783Z,8
2017-03-04T03:09:30.427Z,7.99
2017-03-04T03:10:30.465Z,8.02
2017-03-04T03:11:30.493Z,8.08
2017-03-04T03:12:30.537Z,7.94
2017-03-04T03:13:30.559Z,7.92
2017-03-04T03:14:30.596Z,7.96
2017-03-04T03:15:30.243Z,8.02
2017-03-04T03:16:30.679Z,8
2017-03-04T03:17:30.327Z,7.96
2017-03-04T03:18:30.755Z,8
2017-03-04T03:19:30.770Z,7.9
2017-03-04T03:20:30.804Z,7.96
2017-03-04T03:21:30.855Z,7.97
2017-03-04T03:22:30.494Z,7.99
2017-03-04T03:23:31.302Z,8.02
2017-03-04T03:24:30.556Z,7.96
2017-03-04T03:25:31.372Z,7.79
2017-03-04T03:26:31.418Z,7.96
2017-03-04T03:27:31.035Z,7.93
2017-03-04T03:28:30.695Z,7.93
2017-03-04T03:29:31.137Z,7.93
2017-03-04T03:30:31.162Z,7.92
2017-03-04T03:31:31.200Z,7.87
2017-03-04T03:32:30.857Z,7.92
2017-03-04T03:33:30.867Z,7.85
2017-03-04T03:34:31.281Z,7.85
2017-03-04T03:35:31.334Z,7.74
2017-03-04T03:36:30.968Z,7.81
2017-03-04T03:37:31.000Z,7.82
2017-03-04T03:38:31.416Z,7.82
2017-03-04T03:39:31.456Z,7.85
2017-03-04T03:40:31.493Z,7.84
2017-03-04T03:41:31.681Z,7.85
2017-03-04T03:42:31.551Z,7.81
2017-03-04T03:43:31.601Z,7.85
2017-03-04T03:44:31.630Z,7.81
2017-03-04T03:45:31.265Z,7.81
2017-03-04T03:46:31.693Z,7.75
2017-03-04T03:47:31.349Z,7.81
2017-03-04T03:48:31.758Z,7.79
2017-03-04T03:49:31.806Z,7.75
2017-03-04T03:50:31.453Z,7.78
2017-03-04T03:51:31.880Z,7.89
2017-03-04T03:52:31.906Z,7.74
2017-03-04T03:53:31.549Z,7.81
2017-03-04T03:54:32.363Z,7.84
2017-03-04T03:55:31.621Z,7.81
2017-03-04T03:56:31.638Z,7.72
2017-03-04T03:57:32.075Z,7.75
2017-03-04T03:58:32.114Z,7.81
2017-03-04T03:59:32.133Z,7.78
2017-03-04T04:00:32.181Z,7.78
2017-03-04T04:01:31.856Z,7.69
2017-03-04T04:02:31.853Z,7.71
2017-03-04T04:03:32.304Z,7.77
2017-03-04T04:04:32.315Z,7.84
2017-03-04T04:05:31.951Z,7.71
2017-03-04T04:06:32.388Z,7.74
2017-03-04T04:07:32.418Z,7.6
2017-03-04T04:08:32.450Z,7.67
2017-03-04T04:09:32.491Z,7.63
2017-03-04T04:10:32.142Z,7.74
2017-03-04T04:11:32.187Z,7.6
2017-03-04T04:12:32.589Z,7.63
2017-03-04T04:13:32.236Z,7.63
2017-03-04T04:14:32.262Z,7.6
2017-03-04T04:15:33.096Z,7.55
2017-03-04T04:16:32.777Z,7.55
2017-03-04T04:17:32.749Z,7.58
2017-03-04T04:18:32.796Z,7.62
2017-03-04T04:19:32.464Z,7.58
2017-03-04T04:20:32.871Z,7.59
2017-03-04T04:21:32.909Z,7.53
2017-03-04T04:22:32.931Z,7.63
2017-03-04T04:23:32.962Z,7.58
2017-03-04T04:24:33.424Z,7.53
2017-03-04T04:25:33.437Z,7.47
2017-03-04T04:26:33.464Z,7.53
2017-03-04T04:27:33.098Z,7.53
2017-03-04T04:28:33.135Z,7.53
2017-03-04T04:29:33.168Z,7.52
2017-03-04T04:30:33.206Z,7.5
2017-03-04T04:31:33.242Z,7.45
2017-03-04T04:32:33.301Z,7.52
2017-03-04T04:33:33.324Z,7.49
2017-03-04T04:34:33.726Z,7.47
2017-03-04T04:35:33.774Z,7.44
2017-03-04T04:36:33.027Z,7.49
2017-03-04T04:37:33.050Z,7.5
2017-03-04T04:38:33.865Z,7.47
2017-03-04T04:39:33.120Z,7.42
2017-03-04T04:40:33.176Z,7.41
2017-03-04T04:41:33.584Z,7.41
2017-03-04T04:42:33.217Z,7.4
2017-03-04T04:43:33.270Z,7.38
2017-03-04T04:44:33.684Z,7.4
2017-03-04T04:45:33.341Z,7.44
2017-03-04T04:46:33.745Z,7.42
2017-03-04T04:47:33.437Z,7.37
2017-03-04T04:48:33.814Z,7.42
2017-03-04T04:49:33.851Z,7.41
2017-03-04T04:50:33.508Z,7.42
2017-03-04T04:51:33.552Z,7.41
2017-03-04T04:52:33.951Z,7.42
2017-03-04T04:53:33.593Z,7.42
2017-03-04T04:54:34.423Z,7.45
2017-03-04T04:55:34.095Z,7.37
2017-03-04T04:56:34.116Z,7.47
2017-03-04T04:57:33.740Z,7.37
2017-03-04T04:58:34.145Z,7.37
2017-03-04T04:59:34.191Z,7.38
2017-03-04T05:00:34.239Z,7.35
2017-03-04T05:01:34.676Z,7.4
2017-03-04T05:02:33.914Z,7.41
2017-03-04T05:03:34.753Z,7.38
2017-03-04T05:04:34.761Z,7.35
2017-03-04T05:05:34.394Z,7.41
2017-03-04T05:06:34.448Z,7.37
2017-03-04T05:07:34.454Z,7.38
2017-03-04T05:08:34.141Z,7.37
2017-03-04T05:09:34.934Z,7.41
2017-03-04T05:10:34.562Z,7.38
2017-03-04T05:11:34.628Z,7.4
2017-03-04T05:12:34.636Z,7.4
2017-03-04T05:13:34.273Z,7.4
2017-03-04T05:14:34.690Z,7.38
2017-03-04T05:15:35.123Z,7.32
2017-03-04T05:16:34.780Z,7.32
2017-03-04T05:17:34.409Z,7.32
2017-03-04T05:18:34.452Z,7.27
2017-03-04T05:19:34.487Z,7.29
2017-03-04T05:20:34.923Z,7.29
2017-03-04T05:21:34.699Z,7.31
2017-03-04T05:22:34.596Z,7.31
2017-03-04T05:23:35.016Z,7.29
2017-03-04T05:24:34.644Z,7.27
2017-03-04T05:25:35.064Z,7.29
2017-03-04T05:26:35.510Z,7.22
2017-03-04T05:27:35.537Z,7.29
2017-03-04T05:28:35.173Z,7.27
2017-03-04T05:29:34.831Z,7.32
2017-03-04T05:30:35.263Z,7.29
2017-03-04T05:31:35.270Z,7.32
2017-03-04T05:32:34.932Z,7.31
2017-03-04T05:33:35.009Z,7.37
2017-03-04T05:34:34.987Z,7.29
2017-03-04T05:35:35.419Z,7.26
2017-03-04T05:36:35.066Z,7.26
2017-03-04T05:37:35.491Z,7.29
2017-03-04T05:38:35.127Z,7.26
2017-03-04T05:39:35.552Z,7.24
2017-03-04T05:40:35.215Z,7.31
2017-03-04T05:41:35.621Z,7.31
2017-03-04T05:42:35.267Z,7.31
2017-03-04T05:43:35.700Z,7.31
2017-03-04T05:44:35.730Z,7.34
2017-03-04T05:45:35.759Z,7.35
2017-03-04T05:46:35.808Z,7.23
2017-03-04T05:47:35.833Z,7.26
2017-03-04T05:48:35.873Z,7.29
2017-03-04T05:49:36.285Z,7.27
2017-03-04T05:50:35.533Z,7.31
2017-03-04T05:51:35.564Z,7.29
2017-03-04T05:52:35.598Z,7.4
2017-03-04T05:53:35.638Z,7.35
2017-03-04T05:54:35.667Z,7.32
2017-03-04T05:55:36.136Z,7.34
2017-03-04T05:56:35.748Z,7.26
2017-03-04T05:57:35.770Z,7.29
2017-03-04T05:58:36.187Z,7.23
2017-03-04T05:59:35.848Z,7.23
2017-03-04T06:00:36.261Z,7.23
2017-03-04T06:01:35.920Z,7.31
2017-03-04T06:02:35.953Z,7.26
2017-03-04T06:03:35.968Z,7.41
2017-03-04T06:04:36.797Z,7.31
2017-03-04T06:05:36.064Z,7.37
2017-03-04T06:06:36.468Z,7.35
2017-03-04T06:07:36.118Z,7.4
2017-03-04T06:08:36.528Z,7.38
2017-03-04T06:09:36.174Z,7.45
2017-03-04T06:10:36.205Z,7.4
2017-03-04T06:11:36.244Z,7.44
2017-03-04T06:12:36.668Z,7.41
2017-03-04T06:13:36.699Z,7.42
2017-03-04T06:14:36.749Z,7.47
2017-03-04T06:15:37.180Z,7.45
2017-03-04T06:16:36.808Z,7.47
2017-03-04T06:17:37.266Z,7.5
2017-03-04T06:18:37.299Z,7.55
2017-03-04T06:19:36.520Z,7.49
2017-03-04T06:20:37.330Z,7.59
2017-03-04T06:21:36.583Z,7.63
2017-03-04T06:22:36.634Z,7.56
2017-03-04T06:23:36.654Z,7.67
2017-03-04T06:24:36.863Z,7.74
2017-03-04T06:25:37.512Z,7.62
2017-03-04T06:26:37.168Z,7.77
2017-03-04T06:27:37.185Z,7.72
2017-03-04T06:28:37.246Z,7.78
2017-03-04T06:29:37.652Z,7.78
2017-03-04T06:30:37.335Z,7.75
2017-03-04T06:31:37.323Z,7.84
2017-03-04T06:32:37.355Z,7.82
2017-03-04T06:33:36.997Z,7.87
2017-03-04T06:34:37.416Z,7.97
2017-03-04T06:35:37.080Z,7.96
2017-03-04T06:36:37.493Z,7.99
2017-03-04T06:37:37.527Z,8.02
2017-03-04T06:38:37.607Z,7.96
2017-03-04T06:39:37.205Z,8.07
2017-03-04T06:40:37.645Z,8.04
2017-03-04T06:41:37.276Z,8.03
2017-03-04T06:42:37.692Z,8.04
2017-03-04T06:43:37.338Z,8.04
2017-03-04T06:44:37.391Z,8.2
2017-03-04T06:45:37.437Z,8.18
2017-03-04T06:46:37.864Z,8.26
2017-03-04T06:47:38.266Z,8.32
2017-03-04T06:48:37.517Z,8.33
2017-03-04T06:49:37.945Z,8.45
2017-03-04T06:50:38.377Z,8.39
2017-03-04T06:51:38.420Z,8.51
2017-03-04T06:52:38.430Z,8.48
2017-03-04T06:53:38.475Z,8.54
2017-03-04T06:54:37.742Z,8.62
2017-03-04T06:55:38.150Z,8.58
2017-03-04T06:56:38.593Z,8.71
2017-03-04T06:57:38.622Z,8.73
2017-03-04T06:58:38.260Z,8.83
2017-03-04T06:59:38.300Z,8.78
2017-03-04T07:00:37.940Z,8.88
2017-03-04T07:01:38.184Z,8.99
2017-03-04T07:02:38.400Z,9.05
2017-03-04T07:03:38.435Z,9.24
2017-03-04T07:04:38.480Z,9.42
2017-03-04T07:05:38.508Z,9.73
2017-03-04T07:06:38.146Z,10.12
2017-03-04T07:07:38.594Z,10.52
2017-03-04T07:08:38.609Z,10.95
2017-03-04T07:09:39.046Z,11.35
2017-03-04T07:10:38.683Z,11.77
2017-03-04T07:11:39.120Z,12.24
2017-03-04T07:12:38.774Z,12.78
2017-03-04T07:13:38.804Z,13.15
2017-03-04T07:14:38.835Z,13.41
2017-03-04T07:15:38.482Z,13.74
2017-03-04T07:16:38.914Z,13.95
2017-03-04T07:17:38.549Z,14.09
2017-03-04T07:18:38.980Z,14.09
2017-03-04T07:19:38.638Z,14.12
2017-03-04T07:20:39.069Z,14.13
2017-03-04T07:21:39.490Z,14.16
2017-03-04T07:22:39.531Z,14.12
2017-03-04T07:23:39.171Z,14.14
2017-03-04T07:24:39.229Z,14.19
2017-03-04T07:25:39.645Z,14.32
2017-03-04T07:26:39.680Z,14.47
2017-03-04T07:27:38.947Z,14.65
2017-03-04T07:28:39.371Z,14.93
2017-03-04T07:29:39.009Z,15.09
2017-03-04T07:30:39.062Z,15.43
2017-03-04T07:31:39.492Z,15.7
2017-03-04T07:32:39.525Z,16.12
2017-03-04T07:33:39.164Z,16.31
2017-03-04T07:34:39.604Z,16.85
2017-03-04T07:35:39.264Z,17.07
2017-03-04T07:36:39.285Z,17.36
2017-03-04T07:37:39.331Z,17.51
2017-03-04T07:38:39.384Z,17.47
2017-03-04T07:39:39.812Z,17.38
2017-03-04T07:40:39.453Z,17.06
2017-03-04T07:41:39.872Z,16.9
2017-03-04T07:42:39.933Z,16.83
2017-03-04T07:43:40.359Z,16.96
2017-03-04T07:44:40.005Z,17
2017-03-04T07:45:40.042Z,17.4
2017-03-04T07:46:40.084Z,17.69
2017-03-04T07:47:40.118Z,18.03
2017-03-04T07:48:40.563Z,18.29
2017-03-04T07:49:40.222Z,18.76
2017-03-04T07:50:40.244Z,19.06
2017-03-04T07:51:40.678Z,19.32
2017-03-04T07:52:40.313Z,19.54
2017-03-04T07:53:40.753Z,19.83
2017-03-04T07:54:40.404Z,19.88
2017-03-04T07:55:40.056Z,20.03
2017-03-04T07:56:40.491Z,20.18
2017-03-04T07:57:40.525Z,20.28
2017-03-04T07:58:40.194Z,20.41
2017-03-04T07:59:40.619Z,20.72
2017-03-04T08:00:40.659Z,20.89
2017-03-04T08:01:40.295Z,20.93
2017-03-04T08:02:40.728Z,21.01
2017-03-04T08:03:41.174Z,20.95
2017-03-04T08:04:40.810Z,21.01
2017-03-04T08:05:40.862Z,20.99
2017-03-04T08:06:40.519Z,21.06
2017-03-04T08:07:40.944Z,20.89
2017-03-04T08:08:40.592Z,21.02
2017-03-04T08:09:40.645Z,21.01
2017-03-04T08:10:41.084Z,20.9
2017-03-04T08:11:41.495Z,20.99
2017-03-04T08:12:41.546Z,21.05
2017-03-04T08:13:41.193Z,21.06
2017-03-04T08:14:41.637Z,21.11
2017-03-04T08:15:40.906Z,21.04
2017-03-04T08:16:41.320Z,20.93
2017-03-04T08:17:41.369Z,20.87
2017-03-04T08:18:41.016Z,20.76
2017-03-04T08:19:41.473Z,20.9
2017-03-04T08:20:41.108Z,20.79
2017-03-04T08:21:41.549Z,20.83
2017-03-04T08:22:41.583Z,20.93
2017-03-04T08:23:41.624Z,20.96
2017-03-04T08:24:41.891Z,20.98
2017-03-04T08:25:41.718Z,21.06
2017-03-04T08:26:41.357Z,21.05
2017-03-04T08:27:41.405Z,21.02
2017-03-04T08:28:41.833Z,21.17
2017-03-04T08:29:41.883Z,21.34
2017-03-04T08:30:41.537Z,21.41
2017-03-04T08:31:42.389Z,21.67
2017-03-04T08:32:42.023Z,21.76
2017-03-04T08:33:41.679Z,21.91
2017-03-04T08:34:42.107Z,22.06
2017-03-04T08:35:42.146Z,22.13
2017-03-04T08:36:41.792Z,22.37
2017-03-04T08:37:42.634Z,22.6
2017-03-04T08:38:42.677Z,22.56
2017-03-04T08:39:41.928Z,22.69
2017-03-04T08:40:42.787Z,22.78
2017-03-04T08:41:42.012Z,22.65
2017-03-04T08:42:42.068Z,22.67
2017-03-04T08:43:42.511Z,22.65
2017-03-04T08:44:42.159Z,22.64
2017-03-04T08:45:43.011Z,22.65
2017-03-04T08:46:42.234Z,22.78
2017-03-04T08:47:42.294Z,22.89
2017-03-04T08:48:42.740Z,22.82
2017-03-04T08:49:42.764Z,22.62
2017-03-04T08:50:42.459Z,22.64
2017-03-04T08:51:42.465Z,22.44
2017-03-04T08:52:42.905Z,22.54
2017-03-04T08:53:42.958Z,22.6
2017-03-04T08:54:42.994Z,22.6
2017-03-04T08:55:43.075Z,22.74
2017-03-04T08:56:43.083Z,22.9
2017-03-04T08:57:43.125Z,22.97
2017-03-04T08:58:42.774Z,23.04
2017-03-04T08:59:43.225Z,22.97
2017-03-04T09:00:42.889Z,22.97
2017-03-04T09:01:43.309Z,23.09
2017-03-04T09:02:43.363Z,23.09
2017-03-04T09:03:43.401Z,23.02
2017-03-04T09:04:43.461Z,23.04
2017-03-04T09:05:43.495Z,23.02
2017-03-04T09:06:43.537Z,22.87
2017-03-04T09:07:43.616Z,22.92
2017-03-04T09:08:43.631Z,22.75
2017-03-04T09:09:43.685Z,22.65
2017-03-04T09:10:43.330Z,22.68
2017-03-04T09:11:43.780Z,22.65
2017-03-04T09:12:43.429Z,22.62
2017-03-04T09:13:43.864Z,22.71
2017-03-04T09:14:43.923Z,22.68
2017-03-04T09:15:43.964Z,22.64
2017-03-04T09:16:44.001Z,22.49
2017-03-04T09:17:44.049Z,22.5
2017-03-04T09:18:44.482Z,22.64
2017-03-04T09:19:44.135Z,22.49
2017-03-04T09:20:44.592Z,22.6
2017-03-04T09:21:44.467Z,22.44
2017-03-04T09:22:44.670Z,22.29
2017-03-04T09:23:43.937Z,22.29
2017-03-04T09:24:44.008Z,22.25
2017-03-04T09:25:44.046Z,22.01
2017-03-04T09:26:44.075Z,21.97
2017-03-04T09:27:44.521Z,21.81
2017-03-04T09:28:44.554Z,21.64
2017-03-04T09:29:45.002Z,21.36
2017-03-04T09:30:44.667Z,21.23
2017-03-04T09:31:44.316Z,21.14
2017-03-04T09:32:44.769Z,21.08
2017-03-04T09:33:44.793Z,21.01
2017-03-04T09:34:44.849Z,20.99
2017-03-04T09:35:45.287Z,20.98
2017-03-04T09:36:45.325Z,20.95
2017-03-04T09:37:45.404Z,21.06
2017-03-04T09:38:44.650Z,21.14
2017-03-04T09:39:44.688Z,21.34
2017-03-04T09:40:45.131Z,21.51
2017-03-04T09:41:45.180Z,21.61
2017-03-04T09:42:45.239Z,21.76
2017-03-04T09:43:45.659Z,21.83
2017-03-04T09:44:45.314Z,22.04
2017-03-04T09:45:45.369Z,22.17
2017-03-04T09:46:45.419Z,22.35
2017-03-04T09:47:45.472Z,22.53
2017-03-04T09:48:45.123Z,22.62
2017-03-04T09:49:45.556Z,22.78
2017-03-04T09:50:46.014Z,22.87
2017-03-04T09:51:45.653Z,22.87
2017-03-04T09:52:45.357Z,23.09
2017-03-04T09:53:45.364Z,23.11
2017-03-04T09:54:45.428Z,23.07
2017-03-04T09:55:45.865Z,23.14
2017-03-04T09:56:45.690Z,23.09
2017-03-04T09:57:45.961Z,23.15
2017-03-04T09:58:45.621Z,23.11
2017-03-04T09:59:45.678Z,23.11
2017-03-04T10:00:46.114Z,23.01
2017-03-04T10:01:45.764Z,22.94
2017-03-04T10:02:46.201Z,22.92
2017-03-04T10:03:46.273Z,22.74
2017-03-04T10:04:45.910Z,22.84
2017-03-04T10:05:46.359Z,22.67
2017-03-04T10:06:46.414Z,22.69
2017-03-04T10:07:46.862Z,22.6
2017-03-04T10:08:46.502Z,22.67
2017-03-04T10:09:46.163Z,22.68
2017-03-04T10:10:46.219Z,22.62
2017-03-04T10:11:47.046Z,22.37
2017-03-04T10:12:46.712Z,22.07
2017-03-04T10:13:46.373Z,22.09
2017-03-04T10:14:46.421Z,22.06
2017-03-04T10:15:46.850Z,21.94
2017-03-04T10:16:46.520Z,21.9
2017-03-04T10:17:46.969Z,22.01
2017-03-04T10:18:46.627Z,22.04
2017-03-04T10:19:47.072Z,21.88
2017-03-04T10:20:47.138Z,21.91
2017-03-04T10:21:47.562Z,22.07
2017-03-04T10:22:52.637Z,22.07
2017-03-04T10:23:46.916Z,21.94
2017-03-04T10:24:47.322Z,21.95
2017-03-04T10:25:47.379Z,21.83
2017-03-04T10:26:47.035Z,21.76
2017-03-04T10:27:47.094Z,21.78
2017-03-04T10:28:47.129Z,21.71
2017-03-04T10:29:47.190Z,21.74
2017-03-04T10:30:47.622Z,21.54
2017-03-04T10:31:47.299Z,21.46
2017-03-04T10:32:47.336Z,21.2
2017-03-04T10:33:47.380Z,21.21
2017-03-04T10:34:47.843Z,21.11
2017-03-04T10:35:47.890Z,21.23
2017-03-04T10:36:47.529Z,21.14
2017-03-04T10:37:47.588Z,21.17
2017-03-04T10:38:48.033Z,21.3
2017-03-04T10:39:48.482Z,21.36
2017-03-04T10:40:48.153Z,21.5
2017-03-04T10:41:48.184Z,21.59
2017-03-04T10:42:48.653Z,21.66
2017-03-04T10:43:48.281Z,21.67
2017-03-04T10:44:48.008Z,21.61
2017-03-04T10:45:48.402Z,21.66
2017-03-04T10:46:48.434Z,21.63
2017-03-04T10:47:48.899Z,21.69
2017-03-04T10:48:48.537Z,21.66
2017-03-04T10:49:48.987Z,21.66
2017-03-04T10:50:48.646Z,21.6
2017-03-04T10:51:48.302Z,21.64
2017-03-04T10:52:48.747Z,21.53
2017-03-04T10:53:48.411Z,21.5
2017-03-04T10:54:48.462Z,21.48
2017-03-04T10:55:49.303Z,21.38
2017-03-04T10:56:48.564Z,21.23
2017-03-04T10:57:48.602Z,21.34
2017-03-04T10:58:48.656Z,21.24
2017-03-04T10:59:48.722Z,21.24
2017-03-04T11:00:48.754Z,21.19
2017-03-04T11:01:48.811Z,21.21
2017-03-04T11:02:49.268Z,21.17
2017-03-04T11:03:49.323Z,21.13
2017-03-04T11:04:48.968Z,21.16
2017-03-04T11:05:49.422Z,21.21
2017-03-04T11:06:49.083Z,21.14
2017-03-04T11:07:49.133Z,21.23
2017-03-04T11:08:49.164Z,21.14
2017-03-04T11:09:50.005Z,21.24
2017-03-04T11:10:49.664Z,21.3
2017-03-04T11:11:49.720Z,21.26
2017-03-04T11:12:49.776Z,21.09
2017-03-04T11:13:49.814Z,21.06
2017-03-04T11:14:49.469Z,21.01
2017-03-04T11:15:50.292Z,21.05
2017-03-04T11:16:49.975Z,21.02
2017-03-04T11:17:50.028Z,21.08
2017-03-04T11:18:50.067Z,20.99
2017-03-04T11:19:50.132Z,20.86
2017-03-04T11:20:50.542Z,20.81
2017-03-04T11:21:50.198Z,20.87
2017-03-04T11:22:50.256Z,20.86
2017-03-04T11:23:50.715Z,20.79
2017-03-04T11:24:50.765Z,20.59
2017-03-04T11:25:50.406Z,20.5
2017-03-04T11:26:50.439Z,20.49
2017-03-04T11:27:50.895Z,20.41
2017-03-04T11:28:50.153Z,20.3
2017-03-04T11:29:50.205Z,20.28
2017-03-04T11:30:50.636Z,20.16
2017-03-04T11:31:51.088Z,20.16
2017-03-04T11:32:51.123Z,19.88
2017-03-04T11:33:50.791Z,19.86
2017-03-04T11:34:50.842Z,19.73
2017-03-04T11:35:51.268Z,19.73
2017-03-04T11:36:50.936Z,19.68
2017-03-04T11:37:51.368Z,19.66
2017-03-04T11:38:51.053Z,19.7
2017-03-04T11:39:51.057Z,19.61
2017-03-04T11:40:50.712Z,19.43
2017-03-04T11:41:51.161Z,19.36
2017-03-04T11:42:50.827Z,19.32
2017-03-04T11:43:51.262Z,19.28
2017-03-04T11:44:51.705Z,19.31
2017-03-04T11:45:50.951Z,19.23
2017-03-04T11:46:50.998Z,19.23
2017-03-04T11:47:51.047Z,19.32
2017-03-04T11:48:51.489Z,19.29
2017-03-04T11:49:51.127Z,19.15
2017-03-04T11:50:51.585Z,19.1
2017-03-04T11:51:51.606Z,19.02
2017-03-04T11:52:51.659Z,18.94
2017-03-04T11:53:51.719Z,18.9
2017-03-04T11:54:51.738Z,18.83
2017-03-04T11:55:51.803Z,18.84
2017-03-04T11:56:51.451Z,18.86
2017-03-04T11:57:51.910Z,18.76
2017-03-04T11:58:51.529Z,18.72
2017-03-04T11:59:51.998Z,18.65
2017-03-04T12:00:51.630Z,18.77
2017-03-04T12:01:52.051Z,18.79
2017-03-04T12:02:51.711Z,18.8
2017-03-04T12:03:51.751Z,18.86
2017-03-04T12:04:52.216Z,18.98
2017-03-04T12:05:52.221Z,18.97
2017-03-04T12:06:51.882Z,18.97
2017-03-04T12:07:51.935Z,19.02
2017-03-04T12:08:52.357Z,19.15
2017-03-04T12:09:52.014Z,19.08
2017-03-04T12:10:52.504Z,18.94
2017-03-04T12:11:52.497Z,18.92
2017-03-04T12:12:52.537Z,18.84
2017-03-04T12:13:52.588Z,18.87
2017-03-04T12:14:53.019Z,18.83
2017-03-04T12:15:52.274Z,18.83
2017-03-04T12:16:52.324Z,18.8
2017-03-04T12:17:53.150Z,18.87
2017-03-04T12:18:52.799Z,18.68
2017-03-04T12:19:52.831Z,18.7
2017-03-04T12:20:52.874Z,18.65
2017-03-04T12:21:52.542Z,18.65
2017-03-04T12:22:52.587Z,18.65
2017-03-04T12:23:53.024Z,18.59
2017-03-04T12:24:53.043Z,18.59
2017-03-04T12:25:53.094Z,18.55
2017-03-04T12:26:52.736Z,18.64
2017-03-04T12:27:52.775Z,18.55
2017-03-04T12:28:53.237Z,18.47
2017-03-04T12:29:52.881Z,18.5
2017-03-04T12:30:52.944Z,18.49
2017-03-04T12:31:52.974Z,18.49
2017-03-04T12:32:53.009Z,18.37
2017-03-04T12:33:53.426Z,18.4
2017-03-04T12:34:53.488Z,18.36
2017-03-04T12:35:53.125Z,18.37
2017-03-04T12:36:53.555Z,18.4
2017-03-04T12:37:53.212Z,18.42
2017-03-04T12:38:53.254Z,18.31
2017-03-04T12:39:53.295Z,18.37
2017-03-04T12:40:53.730Z,18.19
2017-03-04T12:41:53.394Z,18.28
2017-03-04T12:42:53.805Z,18.22
2017-03-04T12:43:53.895Z,18.17
2017-03-04T12:44:54.275Z,18.21
2017-03-04T12:45:53.946Z,18.15
2017-03-04T12:46:53.602Z,18.19
2017-03-04T12:47:54.031Z,18.19
2017-03-04T12:48:53.685Z,18.36
2017-03-04T12:49:54.115Z,18.34
2017-03-04T12:50:54.530Z,18.29
2017-03-04T12:51:54.208Z,18.37
2017-03-04T12:52:54.243Z,18.36
2017-03-04T12:53:54.280Z,18.42
2017-03-04T12:54:53.921Z,18.36
2017-03-04T12:55:54.358Z,18.25
2017-03-04T12:56:54.012Z,18.15
2017-03-04T12:57:54.440Z,18.15
2017-03-04T12:58:54.107Z,18.1
2017-03-04T12:59:54.920Z,18.06
2017-03-04T13:00:54.599Z,18.03
2017-03-04T13:01:54.209Z,17.99
2017-03-04T13:02:54.283Z,17.87
2017-03-04T13:03:54.287Z,17.89
2017-03-04T13:04:54.362Z,17.87
2017-03-04T13:05:54.779Z,17.94
2017-03-04T13:06:54.457Z,17.82
2017-03-04T13:07:54.856Z,17.84
2017-03-04T13:08:54.900Z,17.82
2017-03-04T13:09:54.928Z,17.74